sensor_id;sensor_type;location;lat;lon;timestamp;pressure;altitude;pressure_sealevel;temperature
62930;BMP280;49036;42.782;23.108;2023-05-29T00:02:12;93771.94;;;9.98
62930;BMP280;49036;42.782;23.108;2023-05-29T00:04:37;93767.41;;;10.03
62930;BMP280;49036;42.782;23.108;2023-05-29T00:07:04;93768.00;;;10.01
62930;BMP280;49036;42.782;23.108;2023-05-29T00:09:30;93767.53;;;10.05
62930;BMP280;49036;42.782;23.108;2023-05-29T00:11:55;93757.75;;;10.04
62930;BMP280;49036;42.782;23.108;2023-05-29T00:14:21;93775.28;;;10.06
62930;BMP280;49036;42.782;23.108;2023-05-29T00:16:47;93771.69;;;9.94
62930;BMP280;49036;42.782;23.108;2023-05-29T00:19:14;93774.75;;;9.79
62930;BMP280;49036;42.782;23.108;2023-05-29T00:21:42;93772.94;;;9.62
62930;BMP280;49036;42.782;23.108;2023-05-29T00:24:08;93779.81;;;9.52
62930;BMP280;49036;42.782;23.108;2023-05-29T00:26:33;93780.41;;;9.40
62930;BMP280;49036;42.782;23.108;2023-05-29T00:28:59;93781.59;;;9.28
62930;BMP280;49036;42.782;23.108;2023-05-29T00:31:24;93772.41;;;9.15
62930;BMP280;49036;42.782;23.108;2023-05-29T00:33:50;93786.25;;;9.15
62930;BMP280;49036;42.782;23.108;2023-05-29T00:36:15;93772.97;;;9.14
62930;BMP280;49036;42.782;23.108;2023-05-29T00:38:41;93774.59;;;9.17
62930;BMP280;49036;42.782;23.108;2023-05-29T00:41:06;93776.94;;;9.11
62930;BMP280;49036;42.782;23.108;2023-05-29T00:43:32;93769.22;;;9.00
62930;BMP280;49036;42.782;23.108;2023-05-29T00:45:58;93788.56;;;8.90
62930;BMP280;49036;42.782;23.108;2023-05-29T00:48:23;93775.63;;;8.93
62930;BMP280;49036;42.782;23.108;2023-05-29T00:50:50;93765.13;;;9.01
62930;BMP280;49036;42.782;23.108;2023-05-29T00:53:16;93763.25;;;8.94
62930;BMP280;49036;42.782;23.108;2023-05-29T00:55:42;93773.44;;;8.91
62930;BMP280;49036;42.782;23.108;2023-05-29T00:58:08;93765.69;;;8.90
62930;BMP280;49036;42.782;23.108;2023-05-29T01:00:33;93754.91;;;9.23
62930;BMP280;49036;42.782;23.108;2023-05-29T01:03:00;93757.09;;;9.24
62930;BMP280;49036;42.782;23.108;2023-05-29T01:05:28;93749.22;;;9.30
62930;BMP280;49036;42.782;23.108;2023-05-29T01:07:54;93751.56;;;9.43
62930;BMP280;49036;42.782;23.108;2023-05-29T01:10:19;93755.06;;;9.44
62930;BMP280;49036;42.782;23.108;2023-05-29T01:13:05;93753.19;;;9.37
62930;BMP280;49036;42.782;23.108;2023-05-29T01:15:54;93756.22;;;9.22
62930;BMP280;49036;42.782;23.108;2023-05-29T01:21:14;93755.53;;;9.11
62930;BMP280;49036;42.782;23.108;2023-05-29T01:24:12;93754.66;;;8.99
62930;BMP280;49036;42.782;23.108;2023-05-29T01:27:00;93765.88;;;8.92
62930;BMP280;49036;42.782;23.108;2023-05-29T01:29:29;93762.06;;;8.97
62930;BMP280;49036;42.782;23.108;2023-05-29T01:31:57;93763.97;;;8.94
62930;BMP280;49036;42.782;23.108;2023-05-29T01:34:23;93771.38;;;8.82
62930;BMP280;49036;42.782;23.108;2023-05-29T01:36:49;93773.97;;;8.70
62930;BMP280;49036;42.782;23.108;2023-05-29T01:39:15;93776.16;;;8.62
62930;BMP280;49036;42.782;23.108;2023-05-29T01:41:42;93769.91;;;8.71
62930;BMP280;49036;42.782;23.108;2023-05-29T01:44:09;93768.63;;;8.82
62930;BMP280;49036;42.782;23.108;2023-05-29T01:46:39;93767.72;;;8.89
62930;BMP280;49036;42.782;23.108;2023-05-29T01:49:05;93770.50;;;8.79
62930;BMP280;49036;42.782;23.108;2023-05-29T01:51:30;93773.84;;;8.68
62930;BMP280;49036;42.782;23.108;2023-05-29T01:53:57;93774.41;;;8.57
62930;BMP280;49036;42.782;23.108;2023-05-29T01:56:23;93762.59;;;8.57
62930;BMP280;49036;42.782;23.108;2023-05-29T01:58:50;93765.56;;;8.68
62930;BMP280;49036;42.782;23.108;2023-05-29T02:01:16;93764.97;;;8.79
62930;BMP280;49036;42.782;23.108;2023-05-29T02:03:41;93752.03;;;8.92
62930;BMP280;49036;42.782;23.108;2023-05-29T02:06:07;93753.63;;;8.95
62930;BMP280;49036;42.782;23.108;2023-05-29T02:08:32;93753.16;;;8.89
62930;BMP280;49036;42.782;23.108;2023-05-29T02:10:57;93755.50;;;8.73
62930;BMP280;49036;42.782;23.108;2023-05-29T02:13:23;93752.31;;;8.67
62930;BMP280;49036;42.782;23.108;2023-05-29T02:15:48;93748.34;;;8.60
62930;BMP280;49036;42.782;23.108;2023-05-29T02:18:14;93744.16;;;8.59
62930;BMP280;49036;42.782;23.108;2023-05-29T02:20:41;93741.34;;;8.49
62930;BMP280;49036;42.782;23.108;2023-05-29T02:23:09;93751.69;;;8.39
62930;BMP280;49036;42.782;23.108;2023-05-29T02:25:35;93742.81;;;8.41
62930;BMP280;49036;42.782;23.108;2023-05-29T02:28:01;93748.06;;;8.56
62930;BMP280;49036;42.782;23.108;2023-05-29T02:30:27;93751.84;;;8.70
62930;BMP280;49036;42.782;23.108;2023-05-29T02:32:53;93751.84;;;8.61
62930;BMP280;49036;42.782;23.108;2023-05-29T02:35:18;93749.22;;;8.53
62930;BMP280;49036;42.782;23.108;2023-05-29T02:37:46;93754.31;;;8.57
62930;BMP280;49036;42.782;23.108;2023-05-29T02:40:11;93747.72;;;8.52
62930;BMP280;49036;42.782;23.108;2023-05-29T02:42:37;93748.50;;;8.52
62930;BMP280;49036;42.782;23.108;2023-05-29T02:45:03;93759.25;;;8.58
62930;BMP280;49036;42.782;23.108;2023-05-29T02:47:28;93757.22;;;8.49
62930;BMP280;49036;42.782;23.108;2023-05-29T02:49:54;93768.13;;;8.47
62930;BMP280;49036;42.782;23.108;2023-05-29T02:52:20;93763.34;;;8.47
62930;BMP280;49036;42.782;23.108;2023-05-29T02:54:45;93758.06;;;8.51
62930;BMP280;49036;42.782;23.108;2023-05-29T02:57:11;93764.50;;;8.54
62930;BMP280;49036;42.782;23.108;2023-05-29T02:59:37;93765.66;;;8.61
62930;BMP280;49036;42.782;23.108;2023-05-29T03:02:02;93758.72;;;8.60
62930;BMP280;49036;42.782;23.108;2023-05-29T03:04:28;93764.09;;;8.67
62930;BMP280;49036;42.782;23.108;2023-05-29T03:06:53;93756.38;;;8.66
62930;BMP280;49036;42.782;23.108;2023-05-29T03:09:20;93759.69;;;8.64
62930;BMP280;49036;42.782;23.108;2023-05-29T03:11:45;93758.41;;;8.65
62930;BMP280;49036;42.782;23.108;2023-05-29T03:14:13;93754.50;;;8.68
62930;BMP280;49036;42.782;23.108;2023-05-29T03:16:38;93764.22;;;8.69
62930;BMP280;49036;42.782;23.108;2023-05-29T03:19:06;93758.69;;;8.69
62930;BMP280;49036;42.782;23.108;2023-05-29T03:21:33;93759.88;;;8.76
62930;BMP280;49036;42.782;23.108;2023-05-29T03:23:59;93770.34;;;8.87
62930;BMP280;49036;42.782;23.108;2023-05-29T03:26:25;93761.78;;;8.93
62930;BMP280;49036;42.782;23.108;2023-05-29T03:28:51;93757.97;;;9.07
62930;BMP280;49036;42.782;23.108;2023-05-29T03:31:16;93762.53;;;9.12
62930;BMP280;49036;42.782;23.108;2023-05-29T03:33:42;93754.22;;;9.12
62930;BMP280;49036;42.782;23.108;2023-05-29T03:36:08;93760.03;;;9.17
62930;BMP280;49036;42.782;23.108;2023-05-29T03:38:33;93762.66;;;9.24
62930;BMP280;49036;42.782;23.108;2023-05-29T03:40:59;93761.34;;;9.25
62930;BMP280;49036;42.782;23.108;2023-05-29T03:43:24;93770.78;;;9.41
62930;BMP280;49036;42.782;23.108;2023-05-29T03:45:50;93768.91;;;9.44
62930;BMP280;49036;42.782;23.108;2023-05-29T03:48:15;93780.41;;;9.50
62930;BMP280;49036;42.782;23.108;2023-05-29T03:50:41;93781.28;;;9.62
62930;BMP280;49036;42.782;23.108;2023-05-29T03:53:06;93784.88;;;9.65
62930;BMP280;49036;42.782;23.108;2023-05-29T03:55:32;93777.72;;;9.71
62930;BMP280;49036;42.782;23.108;2023-05-29T03:57:57;93787.06;;;9.76
62930;BMP280;49036;42.782;23.108;2023-05-29T04:00:23;93785.56;;;9.85
62930;BMP280;49036;42.782;23.108;2023-05-29T04:02:48;93790.06;;;9.90
62930;BMP280;49036;42.782;23.108;2023-05-29T04:05:13;93800.06;;;10.04
62930;BMP280;49036;42.782;23.108;2023-05-29T04:07:39;93799.00;;;10.19
62930;BMP280;49036;42.782;23.108;2023-05-29T04:10:06;93807.31;;;10.50
62930;BMP280;49036;42.782;23.108;2023-05-29T04:12:32;93803.19;;;10.82
62930;BMP280;49036;42.782;23.108;2023-05-29T04:14:58;93803.00;;;10.90
62930;BMP280;49036;42.782;23.108;2023-05-29T04:17:23;93808.88;;;11.06
62930;BMP280;49036;42.782;23.108;2023-05-29T04:19:49;93804.56;;;11.14
62930;BMP280;49036;42.782;23.108;2023-05-29T04:22:14;93810.03;;;11.24
62930;BMP280;49036;42.782;23.108;2023-05-29T04:24:40;93805.84;;;11.34
62930;BMP280;49036;42.782;23.108;2023-05-29T04:27:10;93807.91;;;11.34
62930;BMP280;49036;42.782;23.108;2023-05-29T04:29:39;93809.03;;;11.52
62930;BMP280;49036;42.782;23.108;2023-05-29T04:32:06;93813.56;;;11.69
62930;BMP280;49036;42.782;23.108;2023-05-29T04:34:34;93814.44;;;11.83
62930;BMP280;49036;42.782;23.108;2023-05-29T04:36:59;93807.22;;;11.90
62930;BMP280;49036;42.782;23.108;2023-05-29T04:39:25;93801.91;;;11.94
62930;BMP280;49036;42.782;23.108;2023-05-29T04:41:50;93802.38;;;12.02
62930;BMP280;49036;42.782;23.108;2023-05-29T04:44:19;93799.50;;;12.12
62930;BMP280;49036;42.782;23.108;2023-05-29T04:46:45;93809.16;;;12.22
62930;BMP280;49036;42.782;23.108;2023-05-29T04:49:12;93811.44;;;12.49
62930;BMP280;49036;42.782;23.108;2023-05-29T04:51:40;93824.38;;;12.80
62930;BMP280;49036;42.782;23.108;2023-05-29T04:54:07;93826.59;;;13.07
62930;BMP280;49036;42.782;23.108;2023-05-29T04:56:34;93821.41;;;13.26
62930;BMP280;49036;42.782;23.108;2023-05-29T04:58:59;93822.09;;;13.39
62930;BMP280;49036;42.782;23.108;2023-05-29T05:01:25;93825.16;;;13.56
62930;BMP280;49036;42.782;23.108;2023-05-29T05:03:51;93832.47;;;13.75
62930;BMP280;49036;42.782;23.108;2023-05-29T05:06:21;93827.31;;;13.83
62930;BMP280;49036;42.782;23.108;2023-05-29T05:08:47;93843.84;;;13.79
62930;BMP280;49036;42.782;23.108;2023-05-29T05:11:12;93842.16;;;13.74
62930;BMP280;49036;42.782;23.108;2023-05-29T05:13:39;93840.94;;;13.77
62930;BMP280;49036;42.782;23.108;2023-05-29T05:16:04;93848.25;;;13.96
62930;BMP280;49036;42.782;23.108;2023-05-29T05:18:30;93856.16;;;14.13
62930;BMP280;49036;42.782;23.108;2023-05-29T05:20:56;93859.88;;;14.18
62930;BMP280;49036;42.782;23.108;2023-05-29T05:23:21;93866.69;;;14.28
62930;BMP280;49036;42.782;23.108;2023-05-29T05:25:47;93865.38;;;14.43
62930;BMP280;49036;42.782;23.108;2023-05-29T05:28:12;93860.94;;;14.52
62930;BMP280;49036;42.782;23.108;2023-05-29T05:30:38;93862.59;;;14.57
62930;BMP280;49036;42.782;23.108;2023-05-29T05:33:03;93870.34;;;14.58
62930;BMP280;49036;42.782;23.108;2023-05-29T05:35:29;93875.91;;;14.45
62930;BMP280;49036;42.782;23.108;2023-05-29T05:37:54;93873.00;;;14.43
62930;BMP280;49036;42.782;23.108;2023-05-29T05:40:23;93874.78;;;14.36
62930;BMP280;49036;42.782;23.108;2023-05-29T05:42:49;93872.59;;;14.35
62930;BMP280;49036;42.782;23.108;2023-05-29T05:45:14;93874.97;;;14.26
62930;BMP280;49036;42.782;23.108;2023-05-29T05:47:41;93871.13;;;14.20
62930;BMP280;49036;42.782;23.108;2023-05-29T05:50:07;93864.13;;;14.19
62930;BMP280;49036;42.782;23.108;2023-05-29T05:52:32;93870.59;;;14.23
62930;BMP280;49036;42.782;23.108;2023-05-29T05:54:58;93872.81;;;14.25
62930;BMP280;49036;42.782;23.108;2023-05-29T05:57:24;93869.47;;;14.28
62930;BMP280;49036;42.782;23.108;2023-05-29T05:59:50;93867.94;;;14.39
62930;BMP280;49036;42.782;23.108;2023-05-29T06:02:16;93879.75;;;14.38
62930;BMP280;49036;42.782;23.108;2023-05-29T06:04:41;93875.72;;;14.41
62930;BMP280;49036;42.782;23.108;2023-05-29T06:07:07;93876.97;;;14.51
62930;BMP280;49036;42.782;23.108;2023-05-29T06:09:32;93876.97;;;14.51
62930;BMP280;49036;42.782;23.108;2023-05-29T06:11:58;93878.31;;;14.64
62930;BMP280;49036;42.782;23.108;2023-05-29T06:14:24;93876.75;;;15.02
62930;BMP280;49036;42.782;23.108;2023-05-29T06:16:50;93880.72;;;15.26
62930;BMP280;49036;42.782;23.108;2023-05-29T06:19:16;93873.41;;;15.06
62930;BMP280;49036;42.782;23.108;2023-05-29T06:21:41;93880.97;;;15.03
62930;BMP280;49036;42.782;23.108;2023-05-29T06:24:07;93881.09;;;14.91
62930;BMP280;49036;42.782;23.108;2023-05-29T06:26:33;93876.13;;;14.90
62930;BMP280;49036;42.782;23.108;2023-05-29T06:28:59;93888.09;;;14.92
62930;BMP280;49036;42.782;23.108;2023-05-29T06:31:25;93884.00;;;15.07
62930;BMP280;49036;42.782;23.108;2023-05-29T06:33:50;93879.19;;;15.23
62930;BMP280;49036;42.782;23.108;2023-05-29T06:36:16;93882.78;;;15.26
62930;BMP280;49036;42.782;23.108;2023-05-29T06:38:49;93871.72;;;15.28
62930;BMP280;49036;42.782;23.108;2023-05-29T06:41:15;93877.94;;;15.56
62930;BMP280;49036;42.782;23.108;2023-05-29T06:43:40;93879.59;;;15.77
62930;BMP280;49036;42.782;23.108;2023-05-29T06:46:06;93878.66;;;16.02
62930;BMP280;49036;42.782;23.108;2023-05-29T06:48:35;93881.56;;;16.19
62930;BMP280;49036;42.782;23.108;2023-05-29T06:51:01;93868.13;;;16.31
62930;BMP280;49036;42.782;23.108;2023-05-29T06:53:35;93874.13;;;16.57
62930;BMP280;49036;42.782;23.108;2023-05-29T06:56:00;93886.88;;;16.60
62930;BMP280;49036;42.782;23.108;2023-05-29T06:58:26;93882.91;;;16.99
62930;BMP280;49036;42.782;23.108;2023-05-29T07:00:51;93883.19;;;17.23
62930;BMP280;49036;42.782;23.108;2023-05-29T07:03:17;93885.75;;;17.34
62930;BMP280;49036;42.782;23.108;2023-05-29T07:05:42;93887.69;;;17.83
62930;BMP280;49036;42.782;23.108;2023-05-29T07:08:08;93891.59;;;17.94
62930;BMP280;49036;42.782;23.108;2023-05-29T07:10:33;93886.72;;;18.14
62930;BMP280;49036;42.782;23.108;2023-05-29T07:12:59;93890.59;;;18.42
62930;BMP280;49036;42.782;23.108;2023-05-29T07:15:24;93890.25;;;18.52
62930;BMP280;49036;42.782;23.108;2023-05-29T07:17:50;93886.56;;;18.67
62930;BMP280;49036;42.782;23.108;2023-05-29T07:20:15;93891.75;;;19.38
62930;BMP280;49036;42.782;23.108;2023-05-29T07:22:41;93884.66;;;18.94
62930;BMP280;49036;42.782;23.108;2023-05-29T07:25:06;93883.59;;;19.48
62930;BMP280;49036;42.782;23.108;2023-05-29T07:27:32;93879.94;;;20.13
62930;BMP280;49036;42.782;23.108;2023-05-29T07:29:57;93881.69;;;20.25
62930;BMP280;49036;42.782;23.108;2023-05-29T07:32:23;93883.03;;;20.21
62930;BMP280;49036;42.782;23.108;2023-05-29T07:34:48;93888.81;;;19.12
62930;BMP280;49036;42.782;23.108;2023-05-29T07:37:15;93888.31;;;18.57
62930;BMP280;49036;42.782;23.108;2023-05-29T07:40:19;93883.78;;;18.48
62930;BMP280;49036;42.782;23.108;2023-05-29T07:42:45;93882.69;;;18.57
62930;BMP280;49036;42.782;23.108;2023-05-29T07:45:10;93875.09;;;19.03
62930;BMP280;49036;42.782;23.108;2023-05-29T07:47:36;93875.97;;;19.07
62930;BMP280;49036;42.782;23.108;2023-05-29T07:50:02;93876.28;;;18.96
62930;BMP280;49036;42.782;23.108;2023-05-29T07:52:28;93874.34;;;19.00
62930;BMP280;49036;42.782;23.108;2023-05-29T07:54:53;93875.66;;;19.19
62930;BMP280;49036;42.782;23.108;2023-05-29T07:57:19;93872.91;;;19.43
62930;BMP280;49036;42.782;23.108;2023-05-29T07:59:44;93878.09;;;19.98
62930;BMP280;49036;42.782;23.108;2023-05-29T08:02:10;93873.50;;;19.85
62930;BMP280;49036;42.782;23.108;2023-05-29T08:04:36;93880.03;;;19.92
62930;BMP280;49036;42.782;23.108;2023-05-29T08:07:02;93874.31;;;20.13
62930;BMP280;49036;42.782;23.108;2023-05-29T08:09:30;93870.72;;;20.35
62930;BMP280;49036;42.782;23.108;2023-05-29T08:11:56;93882.31;;;20.47
62930;BMP280;49036;42.782;23.108;2023-05-29T08:14:22;93877.34;;;19.96
62930;BMP280;49036;42.782;23.108;2023-05-29T08:16:47;93870.69;;;19.85
62930;BMP280;49036;42.782;23.108;2023-05-29T08:19:13;93872.00;;;20.32
62930;BMP280;49036;42.782;23.108;2023-05-29T08:21:38;93878.28;;;20.04
62930;BMP280;49036;42.782;23.108;2023-05-29T08:24:05;93877.69;;;19.84
62930;BMP280;49036;42.782;23.108;2023-05-29T08:26:31;93876.56;;;20.19
62930;BMP280;49036;42.782;23.108;2023-05-29T08:28:56;93877.06;;;19.88
62930;BMP280;49036;42.782;23.108;2023-05-29T08:32:56;93881.56;;;19.73
62930;BMP280;49036;42.782;23.108;2023-05-29T08:35:22;93894.13;;;19.24
62930;BMP280;49036;42.782;23.108;2023-05-29T08:37:48;93891.53;;;19.10
62930;BMP280;49036;42.782;23.108;2023-05-29T08:40:13;93887.00;;;19.01
62930;BMP280;49036;42.782;23.108;2023-05-29T08:42:56;93879.66;;;19.12
62930;BMP280;49036;42.782;23.108;2023-05-29T08:45:24;93885.25;;;19.56
62930;BMP280;49036;42.782;23.108;2023-05-29T08:47:53;93869.09;;;19.34
62930;BMP280;49036;42.782;23.108;2023-05-29T08:50:20;93882.41;;;19.32
62930;BMP280;49036;42.782;23.108;2023-05-29T08:52:46;93868.72;;;19.90
62930;BMP280;49036;42.782;23.108;2023-05-29T08:55:13;93861.94;;;20.76
62930;BMP280;49036;42.782;23.108;2023-05-29T08:57:39;93869.28;;;21.45
62930;BMP280;49036;42.782;23.108;2023-05-29T09:00:06;93867.16;;;21.46
62930;BMP280;49036;42.782;23.108;2023-05-29T09:02:41;93855.88;;;22.12
62930;BMP280;49036;42.782;23.108;2023-05-29T09:05:11;93868.31;;;23.10
62930;BMP280;49036;42.782;23.108;2023-05-29T09:07:38;93859.63;;;23.92
62930;BMP280;49036;42.782;23.108;2023-05-29T09:10:08;93861.59;;;23.82
62930;BMP280;49036;42.782;23.108;2023-05-29T09:12:35;93859.25;;;24.22
62930;BMP280;49036;42.782;23.108;2023-05-29T09:15:01;93860.56;;;24.11
62930;BMP280;49036;42.782;23.108;2023-05-29T09:18:50;93864.63;;;23.02
62930;BMP280;49036;42.782;23.108;2023-05-29T09:21:27;93856.53;;;24.32
62930;BMP280;49036;42.782;23.108;2023-05-29T09:23:54;93843.31;;;25.44
62930;BMP280;49036;42.782;23.108;2023-05-29T09:26:21;93847.56;;;25.43
62930;BMP280;49036;42.782;23.108;2023-05-29T09:28:48;93849.38;;;24.25
62930;BMP280;49036;42.782;23.108;2023-05-29T09:31:15;93842.53;;;22.90
62930;BMP280;49036;42.782;23.108;2023-05-29T09:33:49;93842.66;;;21.86
62930;BMP280;49036;42.782;23.108;2023-05-29T09:36:21;93832.84;;;21.25
62930;BMP280;49036;42.782;23.108;2023-05-29T09:38:47;93828.97;;;20.83
62930;BMP280;49036;42.782;23.108;2023-05-29T09:41:13;93837.75;;;20.67
62930;BMP280;49036;42.782;23.108;2023-05-29T09:45:49;93826.91;;;21.75
62930;BMP280;49036;42.782;23.108;2023-05-29T09:48:22;93816.19;;;22.05
62930;BMP280;49036;42.782;23.108;2023-05-29T09:50:48;93814.53;;;22.68
62930;BMP280;49036;42.782;23.108;2023-05-29T09:53:21;93813.06;;;23.55
62930;BMP280;49036;42.782;23.108;2023-05-29T09:55:54;93806.38;;;24.49
62930;BMP280;49036;42.782;23.108;2023-05-29T09:58:23;93800.38;;;24.99
62930;BMP280;49036;42.782;23.108;2023-05-29T10:00:50;93801.66;;;24.78
62930;BMP280;49036;42.782;23.108;2023-05-29T10:03:19;93800.47;;;25.09
62930;BMP280;49036;42.782;23.108;2023-05-29T10:05:50;93799.38;;;24.60
62930;BMP280;49036;42.782;23.108;2023-05-29T10:08:20;93799.22;;;24.46
62930;BMP280;49036;42.782;23.108;2023-05-29T10:10:49;93806.06;;;24.23
62930;BMP280;49036;42.782;23.108;2023-05-29T10:13:20;93816.25;;;23.32
62930;BMP280;49036;42.782;23.108;2023-05-29T10:15:49;93808.91;;;23.63
62930;BMP280;49036;42.782;23.108;2023-05-29T10:20:52;93805.75;;;23.92
62930;BMP280;49036;42.782;23.108;2023-05-29T10:23:22;93803.97;;;24.23
62930;BMP280;49036;42.782;23.108;2023-05-29T10:25:51;93799.28;;;25.41
62930;BMP280;49036;42.782;23.108;2023-05-29T10:28:19;93792.53;;;26.55
62930;BMP280;49036;42.782;23.108;2023-05-29T10:30:53;93790.97;;;27.64
62930;BMP280;49036;42.782;23.108;2023-05-29T10:39:43;93792.81;;;25.38
62930;BMP280;49036;42.782;23.108;2023-05-29T10:42:40;93790.34;;;24.86
62930;BMP280;49036;42.782;23.108;2023-05-29T10:45:07;93784.84;;;24.26
62930;BMP280;49036;42.782;23.108;2023-05-29T10:49:38;93782.94;;;25.43
62930;BMP280;49036;42.782;23.108;2023-05-29T10:52:04;93779.66;;;27.33
62930;BMP280;49036;42.782;23.108;2023-05-29T10:54:40;93774.94;;;29.13
62930;BMP280;49036;42.782;23.108;2023-05-29T10:57:07;93774.09;;;30.76
62930;BMP280;49036;42.782;23.108;2023-05-29T10:59:37;93766.38;;;30.68
62930;BMP280;49036;42.782;23.108;2023-05-29T11:02:03;93766.28;;;31.83
62930;BMP280;49036;42.782;23.108;2023-05-29T11:04:31;93753.53;;;30.20
62930;BMP280;49036;42.782;23.108;2023-05-29T11:06:58;93752.19;;;30.60
62930;BMP280;49036;42.782;23.108;2023-05-29T11:09:33;93748.41;;;31.45
62930;BMP280;49036;42.782;23.108;2023-05-29T11:12:15;93753.00;;;31.67
62930;BMP280;49036;42.782;23.108;2023-05-29T11:15:01;93753.47;;;31.78
62930;BMP280;49036;42.782;23.108;2023-05-29T11:20:06;93746.38;;;33.19
62930;BMP280;49036;42.782;23.108;2023-05-29T11:25:14;93744.00;;;33.52
62930;BMP280;49036;42.782;23.108;2023-05-29T11:27:40;93739.91;;;34.15
62930;BMP280;49036;42.782;23.108;2023-05-29T11:30:06;93729.34;;;34.72
62930;BMP280;49036;42.782;23.108;2023-05-29T11:32:34;93734.31;;;36.08
62930;BMP280;49036;42.782;23.108;2023-05-29T11:35:07;93733.91;;;35.64
62930;BMP280;49036;42.782;23.108;2023-05-29T11:37:35;93739.81;;;33.22
62930;BMP280;49036;42.782;23.108;2023-05-29T11:40:06;93732.63;;;32.12
62930;BMP280;49036;42.782;23.108;2023-05-29T11:42:33;93741.41;;;31.38
62930;BMP280;49036;42.782;23.108;2023-05-29T11:45:18;93730.03;;;31.32
62930;BMP280;49036;42.782;23.108;2023-05-29T11:47:58;93727.47;;;29.38
62930;BMP280;49036;42.782;23.108;2023-05-29T11:50:28;93736.47;;;29.00
62930;BMP280;49036;42.782;23.108;2023-05-29T11:52:56;93733.41;;;27.06
62930;BMP280;49036;42.782;23.108;2023-05-29T11:55:23;93733.78;;;25.14
62930;BMP280;49036;42.782;23.108;2023-05-29T11:57:56;93734.88;;;23.92
62930;BMP280;49036;42.782;23.108;2023-05-29T12:00:22;93722.03;;;26.31
62930;BMP280;49036;42.782;23.108;2023-05-29T12:02:48;93728.66;;;28.11
62930;BMP280;49036;42.782;23.108;2023-05-29T12:05:16;93719.19;;;26.09
62930;BMP280;49036;42.782;23.108;2023-05-29T12:07:47;93724.44;;;24.11
62930;BMP280;49036;42.782;23.108;2023-05-29T12:10:16;93724.72;;;23.17
62930;BMP280;49036;42.782;23.108;2023-05-29T12:12:42;93725.75;;;22.45
62930;BMP280;49036;42.782;23.108;2023-05-29T12:15:08;93729.25;;;22.04
62930;BMP280;49036;42.782;23.108;2023-05-29T12:17:35;93713.44;;;21.53
62930;BMP280;49036;42.782;23.108;2023-05-29T12:20:02;93710.09;;;21.62
62930;BMP280;49036;42.782;23.108;2023-05-29T12:22:36;93717.03;;;21.55
62930;BMP280;49036;42.782;23.108;2023-05-29T12:25:10;93717.94;;;22.02
62930;BMP280;49036;42.782;23.108;2023-05-29T12:27:42;93716.91;;;22.25
62930;BMP280;49036;42.782;23.108;2023-05-29T12:30:13;93710.34;;;23.01
62930;BMP280;49036;42.782;23.108;2023-05-29T12:32:46;93714.13;;;23.17
62930;BMP280;49036;42.782;23.108;2023-05-29T12:37:48;93731.81;;;21.90
62930;BMP280;49036;42.782;23.108;2023-05-29T12:40:20;93733.06;;;20.83
62930;BMP280;49036;42.782;23.108;2023-05-29T12:42:54;93740.94;;;20.31
62930;BMP280;49036;42.782;23.108;2023-05-29T12:45:19;93741.16;;;20.13
62930;BMP280;49036;42.782;23.108;2023-05-29T12:47:49;93745.63;;;19.70
62930;BMP280;49036;42.782;23.108;2023-05-29T12:50:36;93755.22;;;19.37
62930;BMP280;49036;42.782;23.108;2023-05-29T12:53:07;93751.53;;;19.09
62930;BMP280;49036;42.782;23.108;2023-05-29T12:55:34;93751.94;;;18.99
62930;BMP280;49036;42.782;23.108;2023-05-29T12:58:04;93759.31;;;18.89
62930;BMP280;49036;42.782;23.108;2023-05-29T13:00:30;93763.94;;;19.00
62930;BMP280;49036;42.782;23.108;2023-05-29T13:02:56;93756.75;;;19.19
62930;BMP280;49036;42.782;23.108;2023-05-29T13:05:22;93758.69;;;19.60
62930;BMP280;49036;42.782;23.108;2023-05-29T13:07:51;93758.38;;;19.99
62930;BMP280;49036;42.782;23.108;2023-05-29T13:10:17;93762.16;;;20.08
62930;BMP280;49036;42.782;23.108;2023-05-29T13:12:43;93759.59;;;20.72
62930;BMP280;49036;42.782;23.108;2023-05-29T13:15:11;93767.03;;;21.51
62930;BMP280;49036;42.782;23.108;2023-05-29T13:17:38;93768.28;;;22.52
62930;BMP280;49036;42.782;23.108;2023-05-29T13:20:10;93772.16;;;22.70
62930;BMP280;49036;42.782;23.108;2023-05-29T13:23:24;93780.41;;;24.09
62930;BMP280;49036;42.782;23.108;2023-05-29T13:25:50;93778.69;;;25.46
62930;BMP280;49036;42.782;23.108;2023-05-29T13:28:15;93771.19;;;26.87
62930;BMP280;49036;42.782;23.108;2023-05-29T13:30:41;93771.00;;;28.75
62930;BMP280;49036;42.782;23.108;2023-05-29T13:33:07;93772.16;;;31.42
62930;BMP280;49036;42.782;23.108;2023-05-29T13:35:32;93777.88;;;33.50
62930;BMP280;49036;42.782;23.108;2023-05-29T13:37:58;93769.06;;;30.78
62930;BMP280;49036;42.782;23.108;2023-05-29T13:40:23;93763.38;;;29.23
62930;BMP280;49036;42.782;23.108;2023-05-29T13:42:49;93773.97;;;27.19
62930;BMP280;49036;42.782;23.108;2023-05-29T13:45:14;93757.56;;;27.30
62930;BMP280;49036;42.782;23.108;2023-05-29T13:47:40;93756.72;;;28.75
62930;BMP280;49036;42.782;23.108;2023-05-29T13:52:05;93745.81;;;30.55
62930;BMP280;49036;42.782;23.108;2023-05-29T13:54:31;93746.34;;;31.42
62930;BMP280;49036;42.782;23.108;2023-05-29T13:57:04;93737.00;;;31.06
62930;BMP280;49036;42.782;23.108;2023-05-29T13:59:34;93744.84;;;31.45
62930;BMP280;49036;42.782;23.108;2023-05-29T14:02:00;93749.09;;;33.50
62930;BMP280;49036;42.782;23.108;2023-05-29T14:04:26;93742.13;;;34.13
62930;BMP280;49036;42.782;23.108;2023-05-29T14:06:52;93738.41;;;35.01
62930;BMP280;49036;42.782;23.108;2023-05-29T14:09:18;93734.50;;;34.47
62930;BMP280;49036;42.782;23.108;2023-05-29T14:11:48;93727.72;;;35.37
62930;BMP280;49036;42.782;23.108;2023-05-29T14:16:57;93731.13;;;35.98
62930;BMP280;49036;42.782;23.108;2023-05-29T14:19:22;93729.66;;;35.24
62930;BMP280;49036;42.782;23.108;2023-05-29T14:21:48;93727.63;;;32.68
62930;BMP280;49036;42.782;23.108;2023-05-29T14:24:14;93729.31;;;33.38
62930;BMP280;49036;42.782;23.108;2023-05-29T14:26:41;93729.47;;;34.47
62930;BMP280;49036;42.782;23.108;2023-05-29T14:29:08;93725.31;;;35.44
62930;BMP280;49036;42.782;23.108;2023-05-29T14:31:33;93720.66;;;36.07
62930;BMP280;49036;42.782;23.108;2023-05-29T14:35:46;93725.63;;;36.44